Time;durP1;ratioP1;P1;durP2;ratioP2;P2;SDS_P1;SDS_P2;PMS_P1;PMS_P2;Temp;Humidity;BMP_temperature;BMP_pressure;BME280_temperature;BME280_humidity;BME280_pressure;Samples;Min_cycle;Max_cycle;Signal;HPM_P1;HPM_P2
2023/09/07 00:02:04;;;;;;;9.02;6.65;;;;;;;16.06;100.00;101693.31;4931294;29;20048;-62
2023/09/07 00:04:31;;;;;;;12.23;6.47;;;;;;;15.94;100.00;101692.81;4931381;29;20428;-62
2023/09/07 00:06:59;;;;;;;13.73;6.53;;;;;;;15.96;100.00;101692.66;4931660;28;20044;-61
2023/09/07 00:09:26;;;;;;;10.55;6.60;;;;;;;15.97;100.00;101690.78;4912709;29;20056;-61
2023/09/07 00:11:53;;;;;;;8.30;6.03;;;;;;;15.94;100.00;101695.53;4912016;29;20142;-61
2023/09/07 00:14:20;;;;;;;12.27;7.00;;;;;;;15.93;100.00;101698.41;4912671;29;20048;-61
2023/09/07 00:16:47;;;;;;;14.52;7.25;;;;;;;15.85;100.00;101693.88;4912849;29;20055;-62
2023/09/07 00:19:13;;;;;;;16.45;7.22;;;;;;;15.84;100.00;101696.72;4895444;29;20075;-62
2023/09/07 00:21:40;;;;;;;8.65;6.10;;;;;;;15.86;100.00;101692.00;4913382;29;20054;-62
2023/09/07 00:24:07;;;;;;;8.45;5.80;;;;;;;15.82;100.00;101691.50;4913653;29;20072;-62
2023/09/07 00:26:33;;;;;;;11.75;7.25;;;;;;;15.82;100.00;101696.06;4912371;29;20048;-61
2023/09/07 00:29:00;;;;;;;15.70;6.90;;;;;;;15.77;100.00;101693.00;4911400;29;20135;-62
2023/09/07 00:31:27;;;;;;;9.80;6.45;;;;;;;15.64;100.00;101686.28;4913286;29;20044;-63
2023/09/07 00:33:54;;;;;;;12.27;6.85;;;;;;;15.65;100.00;101682.56;4915656;29;20056;-61
2023/09/07 00:36:21;;;;;;;13.02;6.53;;;;;;;15.71;100.00;101692.69;4916168;29;20460;-61
2023/09/07 00:38:47;;;;;;;9.18;6.57;;;;;;;15.70;100.00;101691.00;4915317;29;20076;-61
2023/09/07 00:41:14;;;;;;;8.80;6.38;;;;;;;15.62;100.00;101693.69;4915849;29;20089;-60
2023/09/07 00:43:41;;;;;;;12.70;6.65;;;;;;;15.67;100.00;101691.34;4915991;29;20055;-60
2023/09/07 00:46:08;;;;;;;12.13;6.50;;;;;;;15.62;100.00;101692.84;4915547;29;20113;-61
2023/09/07 00:48:35;;;;;;;12.52;6.28;;;;;;;15.60;100.00;101689.44;4915432;29;20059;-62
2023/09/07 00:51:02;;;;;;;10.10;6.93;;;;;;;15.58;100.00;101688.78;4914576;28;20063;-61
2023/09/07 00:53:29;;;;;;;11.55;6.82;;;;;;;15.44;100.00;101688.44;4915349;29;20515;-60
2023/09/07 00:55:57;;;;;;;13.02;7.68;;;;;;;15.38;100.00;101682.88;4914268;29;20063;-61
2023/09/07 00:58:23;;;;;;;15.70;6.65;;;;;;;15.39;100.00;101688.09;4914844;29;20052;-61
2023/09/07 01:00:50;;;;;;;12.80;6.95;;;;;;;15.39;100.00;101685.38;4915477;29;20413;-61
2023/09/07 01:03:17;;;;;;;9.50;6.85;;;;;;;15.48;100.00;101686.25;4914793;29;20073;-61
2023/09/07 01:09:35;;;;;;;9.20;6.40;;;;;;;15.25;100.00;101678.78;4920572;29;20059;-61
2023/09/07 01:12:02;;;;;;;13.10;7.18;;;;;;;15.19;100.00;101676.78;4934326;29;20055;-62
2023/09/07 01:14:29;;;;;;;9.45;6.35;;;;;;;15.09;100.00;101673.38;4934188;29;20678;-61
2023/09/07 01:16:56;;;;;;;13.25;6.80;;;;;;;15.06;100.00;101665.59;4933943;29;20051;-61
2023/09/07 01:19:23;;;;;;;11.77;7.03;;;;;;;15.01;100.00;101668.78;4934162;29;20055;-61
2023/09/07 01:21:50;;;;;;;13.90;6.85;;;;;;;15.00;100.00;101660.88;4933528;29;20079;-61
2023/09/07 01:24:17;;;;;;;13.57;7.30;;;;;;;14.97;100.00;101666.59;4932659;29;20457;-60
2023/09/07 01:26:49;;;;;;;13.25;7.60;;;;;;;14.98;100.00;101662.88;4932652;29;20055;-62
2023/09/07 01:29:18;;;;;;;17.33;6.38;;;;;;;15.01;100.00;101665.25;4933665;29;20138;-60
2023/09/07 01:31:45;;;;;;;10.15;7.25;;;;;;;14.97;100.00;101667.44;4933522;29;20051;-60
2023/09/07 01:34:11;;;;;;;11.25;6.35;;;;;;;15.03;100.00;101663.22;4916250;29;20054;-61
2023/09/07 01:36:38;;;;;;;11.02;6.93;;;;;;;14.97;100.00;101670.13;4933125;29;20056;-61
2023/09/07 01:39:08;;;;;;;17.50;6.70;;;;;;;14.77;100.00;101656.09;4934362;29;20138;-61
2023/09/07 01:41:34;;;;;;;14.05;7.30;;;;;;;14.66;100.00;101645.56;4933246;29;20120;-61
2023/09/07 01:44:01;;;;;;;17.45;7.00;;;;;;;14.68;100.00;101659.75;4932919;29;20515;-61
2023/09/07 01:46:28;;;;;;;11.02;7.60;;;;;;;14.68;100.00;101657.06;4932854;29;20051;-60
2023/09/07 01:48:55;;;;;;;11.30;6.45;;;;;;;14.70;100.00;101657.75;4933176;29;20055;-61
2023/09/07 01:51:21;;;;;;;16.92;7.00;;;;;;;14.61;100.00;101653.31;4933098;29;20110;-62
2023/09/07 01:53:48;;;;;;;13.32;6.88;;;;;;;14.57;100.00;101653.81;4932453;29;20047;-60
2023/09/07 01:56:17;;;;;;;12.77;6.63;;;;;;;14.55;100.00;101656.66;4932730;29;20107;-61
2023/09/07 01:58:44;;;;;;;13.45;7.20;;;;;;;14.49;100.00;101657.31;4932441;29;20126;-61
2023/09/07 02:01:27;;;;;;;11.85;6.38;;;;;;;14.55;100.00;101662.06;4932517;29;20055;-61
2023/09/07 02:03:53;;;;;;;15.20;6.38;;;;;;;14.60;100.00;101653.47;4933579;29;20063;-61
2023/09/07 02:06:20;;;;;;;13.15;7.50;;;;;;;14.52;100.00;101657.84;4932693;29;20047;-60
2023/09/07 02:08:47;;;;;;;13.05;6.88;;;;;;;14.53;100.00;101646.03;4932097;29;20048;-62
2023/09/07 02:11:14;;;;;;;13.45;6.65;;;;;;;14.54;100.00;101654.97;4932594;29;20055;-62
2023/09/07 02:13:42;;;;;;;14.32;7.38;;;;;;;14.58;100.00;101652.81;4932651;29;20468;-61
2023/09/07 02:16:09;;;;;;;13.20;6.70;;;;;;;14.53;100.00;101661.38;4932025;29;20471;-61
2023/09/07 02:18:37;;;;;;;11.77;7.10;;;;;;;14.57;100.00;101651.97;4932212;29;20521;-61
2023/09/07 02:21:04;;;;;;;9.75;7.13;;;;;;;14.48;100.00;101653.78;4932452;29;20064;-61
2023/09/07 02:23:32;;;;;;;12.25;6.65;;;;;;;14.49;100.00;101650.06;4932478;29;20051;-61
2023/09/07 02:25:59;;;;;;;15.30;7.22;;;;;;;14.44;100.00;101648.88;4932354;29;20047;-61
2023/09/07 02:28:26;;;;;;;17.80;6.55;;;;;;;14.41;100.00;101654.59;4931995;29;20493;-61
2023/09/07 02:30:53;;;;;;;19.13;7.63;;;;;;;14.29;100.00;101646.78;4932215;29;20080;-60
2023/09/07 02:33:20;;;;;;;12.30;6.80;;;;;;;14.29;100.00;101654.91;4931824;29;20044;-62
2023/09/07 02:35:49;;;;;;;18.25;7.47;;;;;;;14.23;100.00;101641.19;4932401;29;20418;-61
2023/09/07 02:38:16;;;;;;;14.55;7.40;;;;;;;14.24;100.00;101638.31;4931741;29;20051;-62
2023/09/07 02:40:43;;;;;;;15.93;6.78;;;;;;;14.21;100.00;101646.75;4932352;29;20522;-61
2023/09/07 02:43:10;;;;;;;14.07;7.00;;;;;;;14.17;100.00;101641.84;4931498;29;20048;-62
2023/09/07 02:45:38;;;;;;;16.90;7.53;;;;;;;14.20;100.00;101645.06;4932326;29;20106;-61
2023/09/07 02:48:05;;;;;;;14.63;7.25;;;;;;;14.21;100.00;101648.59;4932230;29;20055;-62
2023/09/07 02:50:34;;;;;;;14.55;6.82;;;;;;;14.15;100.00;101650.09;4932136;29;20139;-61
2023/09/07 02:53:01;;;;;;;13.98;7.22;;;;;;;14.08;100.00;101651.75;4932544;29;20071;-61
2023/09/07 02:55:28;;;;;;;11.52;7.15;;;;;;;14.05;100.00;101650.22;4931307;29;20051;-61
2023/09/07 02:57:56;;;;;;;12.52;7.55;;;;;;;14.11;100.00;101659.50;4931891;29;20064;-61
2023/09/07 03:00:23;;;;;;;18.52;6.93;;;;;;;13.96;100.00;101650.31;4930830;29;20054;-60
2023/09/07 03:02:50;;;;;;;11.05;6.65;;;;;;;13.98;100.00;101649.16;4932020;29;20062;-61
2023/09/07 03:05:17;;;;;;;11.93;6.78;;;;;;;13.95;100.00;101648.66;4931047;29;20066;-61
2023/09/07 03:07:46;;;;;;;13.40;6.90;;;;;;;13.91;100.00;101645.41;4931084;29;20593;-61
2023/09/07 03:10:13;;;;;;;11.13;7.35;;;;;;;13.83;100.00;101645.34;4931181;29;20067;-61
2023/09/07 03:12:40;;;;;;;9.43;6.70;;;;;;;13.79;100.00;101644.81;4931590;29;20079;-61
2023/09/07 03:15:07;;;;;;;23.55;6.80;;;;;;;13.80;100.00;101641.16;4931956;29;20102;-61
2023/09/07 03:17:34;;;;;;;12.98;6.32;;;;;;;13.87;100.00;101646.72;4932156;29;20058;-62
2023/09/07 03:20:05;;;;;;;11.77;6.72;;;;;;;13.84;100.00;101641.66;4931384;29;20047;-61
2023/09/07 03:22:31;;;;;;;11.35;7.35;;;;;;;13.75;100.00;101648.81;4932041;28;20484;-61
2023/09/07 03:24:59;;;;;;;12.25;7.40;;;;;;;13.65;100.00;101631.91;4930974;29;20523;-61
2023/09/07 03:27:25;;;;;;;11.00;7.10;;;;;;;13.62;100.00;101639.47;4931180;29;20566;-61
2023/09/07 03:29:52;;;;;;;17.92;7.65;;;;;;;13.53;100.00;101625.09;4930718;29;20111;-61
2023/09/07 03:32:18;;;;;;;9.73;7.15;;;;;;;13.50;100.00;101622.69;4931059;29;20181;-61
2023/09/07 03:34:45;;;;;;;9.93;7.20;;;;;;;13.39;100.00;101614.84;4930927;29;20477;-62
2023/09/07 03:37:11;;;;;;;17.13;7.50;;;;;;;13.38;100.00;101614.00;4931593;29;20122;-60
2023/09/07 03:39:38;;;;;;;16.60;7.63;;;;;;;13.41;100.00;101616.38;4931029;29;20515;-61
2023/09/07 03:42:05;;;;;;;9.18;7.15;;;;;;;13.39;100.00;101618.41;4931215;29;20127;-61
2023/09/07 03:44:32;;;;;;;11.43;6.95;;;;;;;13.42;100.00;101614.53;4931892;29;20102;-61
2023/09/07 03:47:00;;;;;;;19.35;7.75;;;;;;;13.33;100.00;101619.03;4931417;29;20103;-61
2023/09/07 03:49:28;;;;;;;12.27;7.85;;;;;;;13.30;100.00;101620.19;4931231;29;20044;-61
2023/09/07 03:51:54;;;;;;;12.80;7.93;;;;;;;13.21;100.00;101612.19;4931012;29;20129;-60
2023/09/07 03:54:21;;;;;;;10.93;7.25;;;;;;;13.12;100.00;101613.97;4931523;28;20095;-61
2023/09/07 03:56:47;;;;;;;13.63;7.55;;;;;;;13.02;100.00;101605.13;4931650;29;20056;-62
2023/09/07 03:59:14;;;;;;;12.63;7.63;;;;;;;13.02;100.00;101603.28;4931384;29;20111;-61
2023/09/07 04:01:40;;;;;;;16.70;7.50;;;;;;;12.99;100.00;101608.13;4931756;29;20059;-61
2023/09/07 04:04:07;;;;;;;12.32;7.38;;;;;;;12.92;100.00;101599.81;4931596;29;20071;-60
2023/09/07 04:06:34;;;;;;;11.30;7.72;;;;;;;12.91;100.00;101600.00;4932759;29;20111;-61
2023/09/07 04:09:00;;;;;;;11.95;7.30;;;;;;;12.85;100.00;101591.50;4935200;29;20040;-60
2023/09/07 04:11:27;;;;;;;13.25;8.23;;;;;;;12.74;100.00;101589.06;4934914;29;20055;-60
2023/09/07 04:13:53;;;;;;;14.35;7.95;;;;;;;12.57;100.00;101573.69;4934844;29;20096;-61
2023/09/07 04:16:20;;;;;;;16.25;8.68;;;;;;;12.59;100.00;101564.47;4935377;29;20059;-61
2023/09/07 04:18:47;;;;;;;18.40;8.32;;;;;;;12.44;100.00;101554.38;4935013;29;20048;-60
2023/09/07 04:21:13;;;;;;;14.32;8.25;;;;;;;12.36;100.00;101547.91;4934301;29;20051;-61
2023/09/07 04:23:40;;;;;;;12.25;7.78;;;;;;;12.39;100.00;101558.38;4934016;29;20051;-61
2023/09/07 04:26:08;;;;;;;9.32;7.40;;;;;;;12.35;100.00;101558.84;4934492;29;20067;-62
2023/09/07 04:28:36;;;;;;;18.38;8.65;;;;;;;12.28;100.00;101550.53;4934992;29;20061;-61
2023/09/07 04:31:03;;;;;;;13.05;8.13;;;;;;;12.15;100.00;101540.13;4935395;29;20508;-62
2023/09/07 04:33:31;;;;;;;15.23;8.52;;;;;;;12.16;100.00;101538.28;4935121;29;20062;-62
2023/09/07 04:36:18;;;;;;;18.25;8.32;;;;;;;11.91;100.00;101516.47;4934859;29;20139;-61
2023/09/07 04:38:44;;;;;;;13.02;8.23;;;;;;;11.92;100.00;101512.78;4934342;29;20453;-61
2023/09/07 04:41:13;;;;;;;19.60;9.13;;;;;;;11.77;100.00;101503.53;4934439;29;20051;-60
2023/09/07 04:43:42;;;;;;;17.02;9.02;;;;;;;11.59;100.00;101471.19;4934554;29;20079;-61
2023/09/07 04:46:13;;;;;;;16.98;8.75;;;;;;;11.56;100.00;101451.84;4934340;29;20079;-62
2023/09/07 04:48:41;;;;;;;18.58;8.90;;;;;;;11.48;100.00;101455.25;4934044;29;20519;-62
2023/09/07 04:51:09;;;;;;;14.85;9.10;;;;;;;11.40;100.00;101439.03;4933424;29;20044;-62
2023/09/07 04:53:37;;;;;;;18.00;9.63;;;;;;;11.40;100.00;101445.25;4934971;29;20059;-62
2023/09/07 04:56:04;;;;;;;17.90;8.88;;;;;;;11.43;100.00;101453.00;4933964;29;20055;-62
2023/09/07 04:58:32;;;;;;;18.83;9.25;;;;;;;11.48;100.00;101457.09;4934911;29;20054;-61
2023/09/07 05:01:11;;;;;;;16.58;9.55;;;;;;;11.38;100.00;101447.25;4933933;29;20440;-60
2023/09/07 05:03:39;;;;;;;18.33;9.02;;;;;;;11.41;100.00;101438.91;4934076;29;20044;-61
2023/09/07 05:06:07;;;;;;;11.50;9.23;;;;;;;11.46;100.00;101451.88;4933465;29;20040;-61
2023/09/07 05:08:34;;;;;;;15.15;9.20;;;;;;;11.48;100.00;101446.34;4917787;29;20055;-62
2023/09/07 05:11:02;;;;;;;15.70;9.27;;;;;;;11.38;100.00;101444.56;4934057;29;20055;-61
2023/09/07 05:13:30;;;;;;;18.45;9.20;;;;;;;11.44;100.00;101453.84;4933534;29;20051;-60
2023/09/07 05:15:59;;;;;;;12.88;8.38;;;;;;;11.46;100.00;101450.03;4933631;29;20079;-62
2023/09/07 05:18:25;;;;;;;14.25;7.93;;;;;;;11.50;100.00;101452.41;4933228;29;20115;-62
2023/09/07 05:20:52;;;;;;;12.80;8.35;;;;;;;11.56;100.00;101458.06;4933715;29;20051;-62
2023/09/07 05:23:20;;;;;;;14.23;8.02;;;;;;;11.68;100.00;101469.47;4933898;29;20056;-61
2023/09/07 05:25:50;;;;;;;14.75;8.18;;;;;;;11.73;100.00;101477.09;4933115;29;20059;-61
2023/09/07 05:28:16;;;;;;;14.27;8.52;;;;;;;11.82;100.00;101486.94;4932916;29;20048;-61
2023/09/07 05:30:43;;;;;;;15.15;8.32;;;;;;;11.93;100.00;101498.34;4933919;29;20130;-61
2023/09/07 05:33:11;;;;;;;16.73;8.80;;;;;;;12.13;100.00;101522.44;4933477;29;20048;-63
2023/09/07 05:35:38;;;;;;;18.05;8.95;;;;;;;12.27;100.00;101538.06;4933386;29;20110;-61
2023/09/07 05:38:05;;;;;;;18.05;8.32;;;;;;;12.41;100.00;101560.91;4933560;29;20476;-61
2023/09/07 05:40:37;;;;;;;18.60;8.75;;;;;;;12.54;100.00;101571.31;4933254;29;20523;-61
2023/09/07 05:43:04;;;;;;;17.63;8.23;;;;;;;12.65;100.00;101589.94;4933858;29;20135;-61
2023/09/07 05:45:36;;;;;;;14.48;8.52;;;;;;;12.82;100.00;101594.50;4934110;29;20424;-62
2023/09/07 05:48:03;;;;;;;;;;;;;;;12.91;100.00;101611.59;4934226;29;20511;-62
2023/09/07 05:50:33;;;;;;;15.95;8.50;;;;;;;13.07;100.00;101624.34;4933752;29;20379;-60
2023/09/07 05:53:00;;;;;;;12.32;8.52;;;;;;;13.21;100.00;101639.97;4932712;29;20127;-62
2023/09/07 05:55:27;;;;;;;16.20;8.70;;;;;;;13.35;100.00;101661.00;4931959;29;20131;-61
2023/09/07 05:57:55;;;;;;;12.20;8.48;;;;;;;13.44;100.00;101670.00;4931607;29;20048;-62
2023/09/07 06:00:23;;;;;;;17.92;8.13;;;;;;;13.63;100.00;101681.59;4932647;29;20075;-62
2023/09/07 06:02:50;;;;;;;17.55;8.32;;;;;;;13.75;100.00;101697.34;4933262;29;20079;-62
2023/09/07 06:05:18;;;;;;;15.00;7.65;;;;;;;13.90;100.00;101702.22;4932774;29;20531;-61
2023/09/07 06:07:45;;;;;;;15.45;8.57;;;;;;;13.99;100.00;101714.75;4932826;29;20079;-61
2023/09/07 06:10:11;;;;;;;16.73;8.15;;;;;;;14.11;100.00;101710.78;4932700;29;20456;-62
2023/09/07 06:12:38;;;;;;;17.65;7.82;;;;;;;14.27;100.00;101726.22;4933031;29;20055;-62
2023/09/07 06:15:05;;;;;;;17.00;7.72;;;;;;;14.43;100.00;101730.88;4933919;29;20188;-61
2023/09/07 06:17:32;;;;;;;16.77;8.32;;;;;;;14.52;100.00;101735.28;4933064;29;20052;-60
2023/09/07 06:19:58;;;;;;;13.73;8.10;;;;;;;14.69;100.00;101750.56;4932704;29;20131;-62
2023/09/07 06:22:25;;;;;;;18.33;7.38;;;;;;;14.89;100.00;101751.19;4933112;29;20052;-61
2023/09/07 06:24:51;;;;;;;18.50;8.15;;;;;;;14.94;100.00;101751.53;4932115;29;20119;-63
2023/09/07 06:27:18;;;;;;;13.68;7.78;;;;;;;15.15;100.00;101745.66;4932445;29;20479;-61
2023/09/07 06:29:45;;;;;;;13.77;8.57;;;;;;;15.35;100.00;101753.50;4932127;29;20060;-62
2023/09/07 06:32:11;;;;;;;15.32;7.57;;;;;;;15.52;100.00;101757.91;4932242;29;20048;-62
2023/09/07 06:34:39;;;;;;;14.75;7.45;;;;;;;15.71;100.00;101764.91;4931285;29;20063;-60
2023/09/07 06:37:06;;;;;;;16.25;7.28;;;;;;;15.72;100.00;101763.88;4932931;29;20122;-63
2023/09/07 06:39:33;;;;;;;14.43;8.27;;;;;;;15.97;100.00;101770.13;4933511;29;20047;-61
2023/09/07 06:42:00;;;;;;;16.35;7.45;;;;;;;16.16;100.00;101763.50;4931805;29;20043;-62
2023/09/07 06:44:26;;;;;;;19.95;7.82;;;;;;;16.16;100.00;101767.06;4932795;29;20142;-62
2023/09/07 06:46:53;;;;;;;13.88;7.47;;;;;;;16.31;100.00;101766.34;4932954;28;20079;-61
2023/09/07 06:49:20;;;;;;;9.85;6.90;;;;;;;16.46;100.00;101769.19;4930643;29;20073;-61
2023/09/07 06:51:46;;;;;;;18.20;7.30;;;;;;;16.61;100.00;101768.34;4930687;29;20471;-60
2023/09/07 06:54:13;;;;;;;15.52;7.53;;;;;;;16.89;100.00;101776.03;4932532;29;20075;-62
2023/09/07 06:56:40;;;;;;;12.82;7.63;;;;;;;17.03;100.00;101779.84;4931782;29;20050;-61
2023/09/07 06:59:07;;;;;;;12.15;7.25;;;;;;;17.29;100.00;101779.53;4931730;29;20043;-62
2023/09/07 07:01:33;;;;;;;12.32;6.93;;;;;;;17.93;100.00;101785.53;4932527;29;20468;-61
2023/09/07 07:04:00;;;;;;;18.30;7.63;;;;;;;17.85;100.00;101785.56;4930651;29;20047;-62
2023/09/07 07:06:27;;;;;;;24.75;8.10;;;;;;;17.87;100.00;101788.97;4931187;29;20135;-61
2023/09/07 07:08:53;;;;;;;22.95;7.43;;;;;;;17.92;100.00;101785.69;4931659;29;20142;-61
2023/09/07 07:11:20;;;;;;;16.77;6.72;;;;;;;18.05;100.00;101794.91;4931641;29;20039;-61
2023/09/07 07:13:46;;;;;;;15.15;7.22;;;;;;;18.33;100.00;101788.91;4931442;29;20048;-62
2023/09/07 07:16:13;;;;;;;22.10;7.32;;;;;;;18.71;100.00;101792.38;4931031;29;20126;-61
2023/09/07 07:18:40;;;;;;;14.02;7.18;;;;;;;19.20;100.00;101785.50;4930838;29;20055;-62
2023/09/07 07:21:10;;;;;;;13.60;6.63;;;;;;;19.77;100.00;101787.38;4931274;29;20044;-61
2023/09/07 07:23:36;;;;;;;15.52;7.10;;;;;;;20.19;95.39;101793.81;4931586;29;20055;-62
2023/09/07 07:26:03;;;;;;;16.48;6.05;;;;;;;20.75;90.00;101782.84;4914581;29;20127;-62
2023/09/07 07:28:31;;;;;;;12.60;6.53;;;;;;;21.26;83.04;101787.94;4915197;29;20087;-61
2023/09/07 07:30:57;;;;;;;18.33;6.35;;;;;;;21.66;81.68;101788.00;4931392;29;20468;-61
2023/09/07 07:33:23;;;;;;;13.05;5.95;;;;;;;22.23;75.09;101791.19;4931503;29;20134;-61
2023/09/07 07:35:50;;;;;;;13.18;6.18;;;;;;;22.44;71.43;101790.94;4930303;29;20091;-61
2023/09/07 07:38:19;;;;;;;12.13;6.45;;;;;;;23.03;66.60;101784.47;4932102;29;20067;-60
2023/09/07 07:40:46;;;;;;;13.98;6.10;;;;;;;23.92;63.37;101779.94;4933266;29;20079;-61
2023/09/07 07:43:13;;;;;;;14.75;6.47;;;;;;;24.42;60.05;101784.56;4936041;29;20134;-61
2023/09/07 07:45:40;;;;;;;15.77;6.38;;;;;;;24.61;56.88;101790.88;4934818;29;20098;-61
2023/09/07 07:48:07;;;;;;;15.90;5.85;;;;;;;25.29;53.58;101789.84;4936000;29;20138;-61
2023/09/07 07:50:41;;;;;;;14.10;5.25;;;;;;;24.94;55.53;101782.25;4936604;29;20388;-61
2023/09/07 07:53:08;;;;;;;11.18;5.50;;;;;;;24.87;53.10;101784.25;4935916;29;20047;-61
2023/09/07 07:55:40;;;;;;;15.00;5.60;;;;;;;25.31;53.20;101779.47;4936487;29;20364;-61
2023/09/07 07:58:08;;;;;;;11.00;5.53;;;;;;;25.55;52.57;101788.63;4935275;29;20051;-64
2023/09/07 08:00:36;;;;;;;18.90;5.30;;;;;;;25.79;51.56;101778.53;4933519;29;20111;-66
2023/09/07 08:03:05;;;;;;;12.60;5.38;;;;;;;24.03;53.77;101778.38;4934435;29;20384;-63
2023/09/07 08:05:32;;;;;;;9.35;5.18;;;;;;;22.89;57.81;101782.00;4933891;29;20538;-58
2023/09/07 08:07:59;;;;;;;15.63;5.43;;;;;;;22.87;58.17;101787.69;4936105;29;20116;-59
2023/09/07 08:10:26;;;;;;;9.00;5.18;;;;;;;22.08;59.23;101780.47;4936970;29;20054;-60
2023/09/07 08:12:56;;;;;;;9.85;5.63;;;;;;;22.35;61.24;101781.28;4936230;28;20130;-60
2023/09/07 08:15:24;;;;;;;11.00;5.82;;;;;;;22.52;60.75;101781.69;4936585;29;20044;-60
2023/09/07 08:17:52;;;;;;;11.10;5.78;;;;;;;22.48;59.67;101781.28;4937227;29;20115;-61
2023/09/07 08:20:19;;;;;;;9.82;5.00;;;;;;;22.83;59.89;101786.44;4936389;29;20055;-60
2023/09/07 08:22:47;;;;;;;10.20;5.25;;;;;;;22.88;59.36;101786.66;4937057;29;20099;-59
2023/09/07 08:25:14;;;;;;;11.95;5.05;;;;;;;23.32;58.50;101782.22;4936190;29;20482;-62
2023/09/07 08:27:45;;;;;;;15.50;5.32;;;;;;;24.19;56.04;101777.78;4935432;29;20441;-62
2023/09/07 08:30:15;;;;;;;13.57;5.78;;;;;;;23.96;53.25;101788.56;4936060;29;20492;-62
2023/09/07 08:32:42;;;;;;;12.25;5.00;;;;;;;24.64;52.36;101780.28;4935409;29;20052;-61
2023/09/07 08:35:13;;;;;;;12.25;4.63;;;;;;;24.53;50.94;101783.81;4936072;29;20043;-61
2023/09/07 08:37:40;;;;;;;14.52;5.13;;;;;;;24.59;51.45;101782.91;4936151;29;20051;-61
2023/09/07 08:40:08;;;;;;;10.35;4.82;;;;;;;25.79;48.96;101782.16;4936001;29;20051;-62
2023/09/07 08:42:38;;;;;;;12.55;4.68;;;;;;;25.44;46.86;101773.78;4936301;29;20048;-60
2023/09/07 08:45:08;;;;;;;9.30;4.72;;;;;;;25.18;47.29;101780.50;4935241;29;20043;-61
2023/09/07 08:47:36;;;;;;;8.98;4.50;;;;;;;26.04;46.41;101778.34;4935879;29;20047;-61
2023/09/07 08:50:08;;;;;;;8.13;4.40;;;;;;;26.71;43.80;101773.28;4934463;29;20157;-60
2023/09/07 08:52:35;;;;;;;9.52;5.03;;;;;;;25.90;44.44;101776.91;4934137;29;20408;-60
2023/09/07 08:55:06;;;;;;;11.20;4.40;;;;;;;26.39;43.38;101778.38;4935076;29;20174;-62
2023/09/07 08:57:32;;;;;;;9.10;4.30;;;;;;;25.66;44.10;101770.53;4935671;29;20461;-61
2023/09/07 09:00:00;;;;;;;8.52;4.65;;;;;;;24.53;46.62;101772.00;4934999;29;20051;-61
2023/09/07 09:02:27;;;;;;;12.35;4.45;;;;;;;24.35;48.05;101781.03;4934582;29;20614;-61
2023/09/07 09:04:54;;;;;;;12.18;4.93;;;;;;;24.32;47.57;101776.81;4934540;29;20131;-61
2023/09/07 09:07:21;;;;;;;9.63;4.22;;;;;;;24.46;46.90;101780.28;4934499;29;20052;-62
2023/09/07 09:09:50;;;;;;;8.35;4.43;;;;;;;25.09;45.92;101777.22;4933860;29;20106;-62
2023/09/07 09:12:17;;;;;;;10.95;4.65;;;;;;;25.09;45.27;101776.38;4933792;29;20047;-61
2023/09/07 09:14:44;;;;;;;10.25;4.32;;;;;;;25.28;45.20;101775.28;4934448;29;20059;-62
2023/09/07 09:17:13;;;;;;;30.70;4.90;;;;;;;25.46;44.74;101777.13;4933703;29;20052;-60
2023/09/07 09:19:41;;;;;;;11.32;4.72;;;;;;;25.48;44.06;101777.75;4935140;28;20512;-60
2023/09/07 09:22:08;;;;;;;9.90;5.03;;;;;;;26.00;43.38;101775.25;4935238;29;20491;-61
2023/09/07 09:24:35;;;;;;;7.72;4.30;;;;;;;27.26;41.45;101767.22;4935559;29;20451;-61
2023/09/07 09:27:03;;;;;;;15.90;4.53;;;;;;;28.47;40.12;101762.34;4934595;29;20507;-61
2023/09/07 09:29:34;;;;;;;11.60;4.88;;;;;;;29.65;36.95;101765.34;4934615;28;20056;-62
2023/09/07 09:32:06;;;;;;;11.35;4.15;;;;;;;29.74;35.26;101761.03;4935232;29;20054;-60
2023/09/07 09:34:37;;;;;;;11.80;4.50;;;;;;;28.44;36.79;101761.78;4935505;29;20048;-62
2023/09/07 09:37:04;;;;;;;10.85;4.38;;;;;;;27.96;36.97;101749.44;4935147;29;20095;-61
2023/09/07 09:39:30;;;;;;;10.48;4.90;;;;;;;28.89;35.41;101749.63;4934639;29;20055;-62
2023/09/07 09:41:57;;;;;;;8.65;4.90;;;;;;;28.30;36.49;101754.91;4934256;29;20051;-62
2023/09/07 09:44:26;;;;;;;7.53;4.65;;;;;;;27.63;37.59;101747.53;4934814;29;20048;-60
2023/09/07 09:46:56;;;;;;;7.93;4.50;;;;;;;27.00;38.85;101757.66;4932642;29;20048;-62
2023/09/07 09:49:23;;;;;;;7.07;4.75;;;;;;;26.24;39.66;101750.50;4934769;29;20052;-62
2023/09/07 09:51:53;;;;;;;11.60;4.78;;;;;;;26.41;39.74;101740.41;4934032;29;20056;-61
2023/09/07 09:54:20;;;;;;;6.80;4.53;;;;;;;26.03;40.35;101741.75;4934219;29;20048;-60
2023/09/07 09:56:47;;;;;;;11.45;5.40;;;;;;;26.80;40.08;101740.75;4934870;29;20393;-62
2023/09/07 09:59:15;;;;;;;14.13;4.28;;;;;;;26.26;39.56;101740.09;4934529;29;20508;-60
2023/09/07 10:01:44;;;;;;;9.07;4.35;;;;;;;26.86;40.04;101750.75;4933764;29;20062;-62
2023/09/07 10:04:16;;;;;;;8.15;4.20;;;;;;;28.68;37.41;101736.69;4934499;29;20492;-60
2023/09/07 10:07:00;;;;;;;8.82;4.25;;;;;;;30.02;34.91;101728.59;4933385;29;20153;-60
2023/09/07 10:09:32;;;;;;;7.65;3.97;;;;;;;31.05;33.40;101732.66;4934281;29;20055;-60
2023/09/07 10:11:59;;;;;;;8.15;4.20;;;;;;;29.51;34.65;101728.19;4933428;29;20044;-61
2023/09/07 10:14:37;;;;;;;14.35;4.75;;;;;;;29.33;36.11;101733.00;4933226;29;20148;-62
2023/09/07 10:17:04;;;;;;;5.63;4.18;;;;;;;30.51;33.83;101740.25;4933900;29;20099;-62
2023/09/07 10:19:30;;;;;;;10.80;4.13;;;;;;;31.18;33.20;101741.28;4933791;29;20082;-61
2023/09/07 10:21:57;;;;;;;7.85;3.95;;;;;;;30.73;32.85;101731.72;4933900;29;20063;-61
2023/09/07 10:24:35;;;;;;;12.45;4.20;;;;;;;29.15;34.80;101733.38;4933380;29;20078;-61
2023/09/07 10:27:07;;;;;;;8.07;4.28;;;;;;;30.36;33.38;101717.16;4932913;29;20097;-61
2023/09/07 10:29:49;;;;;;;11.15;4.20;;;;;;;31.30;32.78;101726.31;4933204;29;20407;-61
2023/09/07 10:32:21;;;;;;;9.02;3.60;;;;;;;30.03;33.44;101727.50;4933179;29;20139;-61
2023/09/07 10:34:48;;;;;;;5.57;4.00;;;;;;;27.45;36.62;101722.94;4932821;29;20090;-62
2023/09/07 10:37:15;;;;;;;10.07;3.75;;;;;;;25.87;38.41;101725.97;4933569;29;20051;-62
2023/09/07 10:39:45;;;;;;;6.45;3.75;;;;;;;25.98;38.92;101718.81;4932334;29;20138;-61
2023/09/07 10:42:25;;;;;;;4.88;3.72;;;;;;;25.97;39.44;101722.63;4932999;29;20086;-61
2023/09/07 10:44:52;;;;;;;6.85;4.32;;;;;;;25.82;39.66;101720.34;4934079;29;20468;-60
2023/09/07 10:47:19;;;;;;;8.93;4.20;;;;;;;26.16;39.11;101715.09;4933588;29;20090;-62
2023/09/07 10:49:46;;;;;;;7.63;4.05;;;;;;;26.74;37.49;101719.66;4933865;29;20051;-62
2023/09/07 10:52:13;;;;;;;6.93;3.67;;;;;;;27.41;36.70;101719.84;4933803;29;20056;-60
2023/09/07 10:54:39;;;;;;;4.80;3.47;;;;;;;26.60;35.64;101721.03;4933828;29;20051;-60
2023/09/07 10:57:13;;;;;;;5.93;3.47;;;;;;;27.52;35.61;101718.09;4934415;29;20463;-61
2023/09/07 10:59:46;;;;;;;6.03;4.25;;;;;;;28.20;34.91;101718.91;4933119;29;20477;-61
2023/09/07 11:02:15;;;;;;;8.20;3.30;;;;;;;27.07;35.94;101718.09;4933394;29;20508;-61
2023/09/07 11:04:42;;;;;;;9.75;3.75;;;;;;;26.32;37.19;101714.38;4933122;29;20419;-61
2023/09/07 11:07:09;;;;;;;5.55;3.95;;;;;;;25.59;38.23;101711.00;4933132;29;20058;-60
2023/09/07 11:09:41;;;;;;;5.30;3.20;;;;;;;25.98;38.31;101713.31;4933773;29;20052;-60
2023/09/07 11:12:08;;;;;;;6.50;3.65;;;;;;;26.42;37.29;101708.28;4933266;29;20079;-63
2023/09/07 11:14:35;;;;;;;8.00;3.75;;;;;;;26.22;36.87;101714.16;4933931;29;20146;-61
2023/09/07 11:17:03;;;;;;;9.18;3.67;;;;;;;26.13;36.91;101699.88;4932398;29;20441;-60
2023/09/07 11:19:33;;;;;;;8.52;3.45;;;;;;;25.68;37.18;101702.41;4933367;29;20388;-60
2023/09/07 11:22:00;;;;;;;11.23;3.42;;;;;;;25.34;37.68;101702.13;4932810;29;20051;-61